Aviation Digital Data Service (ADDS)

Output produced by METARs form (0051 UTC 24 May 2022)
found at http://www.aviationweather.gov/metar/data/
 
UMGG 240000Z 26002MPS CAVOK 07/03 Q1011 NOSIG
TAF UMGG 232302Z 2400/2424 30005MPS CAVOK 
     TEMPO 2400/2406 33006MPS 
     TEMPO 2406/2418 34007MPS BKN030
       
UMMS 240030Z 32002MPS CAVOK 04/03 Q1012 NOSIG
TAF UMMS 232302Z 2400/2424 VRB02MPS CAVOK